Mount Lawley Perth Metro, Australia
Current Conditions -  °F | °C
As of 11:00 AM on Friday 28 Nov 2014 (Local Time) from YPPH Reporting Station
Broken Clouds Broken Clouds  
Wind Chill: 23°   Ceiling: 2500
Heat Index: 23°   Visibility: 6mi
Dew Point: 16°   Wind: 15mph
Humidity: 65%   Direction: 250°WSW
Pressure: 29.83"   Gusts: NA
Location:  31.92°S, 115.87°E
Report Text: YPPH 280300Z 25013KT 9999 BKN025 23/16 Q1010 NOSIG
Loading
Personal Weather Stations






























Interactive Weather Map New forecast layout! Learn more

10-Day Weather Forecast

Advertisements
Track Severe Weather on mobile